createdAt,value
2018-04-15T00:00:19.579Z,98261.03
2018-04-15T00:02:47.060Z,98259.29
2018-04-15T00:05:14.533Z,98264.31
2018-04-15T00:07:42.011Z,98268.70
2018-04-15T00:10:09.810Z,98267.61
2018-04-15T00:12:37.301Z,98265.25
2018-04-15T00:15:04.820Z,98262.81
2018-04-15T00:17:32.296Z,98257.58
2018-04-15T00:19:59.773Z,98257.58
2018-04-15T00:22:27.237Z,98254.84
2018-04-15T00:24:54.835Z,98257.06
2018-04-15T00:27:22.306Z,98249.24
2018-04-15T00:29:49.831Z,98242.27
2018-04-15T00:32:17.342Z,98239.09
2018-04-15T00:34:44.858Z,98238.77
2018-04-15T00:37:12.475Z,98243.78
2018-04-15T00:39:40.064Z,98241.71
2018-04-15T00:42:07.563Z,98237.33
2018-04-15T00:44:35.056Z,98236.59
2018-04-15T00:47:02.545Z,98238.23
2018-04-15T00:49:30.069Z,98236.64
2018-04-15T00:51:57.546Z,98238.39
2018-04-15T00:54:25.025Z,98241.21
2018-04-15T00:56:52.540Z,98236.04
2018-04-15T00:59:20.089Z,98234.32
2018-04-15T01:01:47.602Z,98236.34
2018-04-15T01:04:15.079Z,98237.90
2018-04-15T01:06:42.603Z,98228.84
2018-04-15T01:09:10.122Z,98228.66
2018-04-15T01:11:37.623Z,98230.85
2018-04-15T01:14:05.115Z,98234.36
2018-04-15T01:16:32.602Z,98228.14
2018-04-15T01:19:00.105Z,98219.41
2018-04-15T01:21:27.583Z,98226.77
2018-04-15T01:23:55.608Z,98225.98
2018-04-15T01:26:23.114Z,98221.51
2018-04-15T01:28:50.616Z,98223.50
2018-04-15T01:31:18.136Z,98218.02
2018-04-15T01:33:45.747Z,98222.13
2018-04-15T01:36:13.219Z,98225.44
2018-04-15T01:38:40.701Z,98226.13
2018-04-15T01:41:08.189Z,98229.64
2018-04-15T01:43:35.670Z,98221.89
2018-04-15T01:46:03.152Z,98219.84
2018-04-15T01:48:30.660Z,98235.72
2018-04-15T01:50:58.126Z,98239.19
2018-04-15T01:53:26.699Z,98245.14
2018-04-15T01:55:54.195Z,98239.73
2018-04-15T01:58:21.680Z,98240.63
2018-04-15T02:00:49.191Z,98238.70
2018-04-15T02:03:16.676Z,98243.73
2018-04-15T02:05:44.183Z,98245.50
2018-04-15T02:08:11.718Z,98241.39
2018-04-15T02:10:39.259Z,98250.80
2018-04-15T02:13:06.778Z,98248.59
2018-04-15T02:15:34.269Z,98251.31
2018-04-15T02:18:01.771Z,98250.07
2018-04-15T02:20:29.375Z,98251.38
2018-04-15T02:22:56.872Z,98247.12
2018-04-15T02:25:24.370Z,98238.55
2018-04-15T02:27:52.029Z,98247.27
2018-04-15T02:30:19.516Z,98244.94
2018-04-15T02:32:47.001Z,98245.71
2018-04-15T02:35:15.210Z,98241.09
2018-04-15T02:37:42.746Z,98234.22
2018-04-15T02:40:10.328Z,98238.59
2018-04-15T02:42:37.835Z,98235.45
2018-04-15T02:45:05.446Z,98231.45
2018-04-15T02:47:32.936Z,98222.47
2018-04-15T02:50:00.576Z,98210.70
2018-04-15T02:52:28.139Z,98203.48
2018-04-15T02:54:55.628Z,98197.47
2018-04-15T02:57:23.119Z,98198.09
2018-04-15T02:59:50.694Z,98197.48
2018-04-15T03:02:18.200Z,98204.38
2018-04-15T03:04:45.692Z,98200.73
2018-04-15T03:07:13.577Z,98198.55
2018-04-15T03:09:41.185Z,98197.12
2018-04-15T03:12:08.707Z,98197.05
2018-04-15T03:14:36.199Z,98191.90
2018-04-15T03:17:03.714Z,98188.06
2018-04-15T03:19:31.242Z,98188.88
2018-04-15T03:21:58.749Z,98188.05
2018-04-15T03:24:26.322Z,98182.95
2018-04-15T03:26:53.915Z,98180.08
2018-04-15T03:29:21.410Z,98171.89
2018-04-15T03:31:48.906Z,98179.80
2018-04-15T03:34:16.399Z,98184.16
2018-04-15T03:36:43.893Z,98175.51
2018-04-15T03:39:11.495Z,98176.34
2018-04-15T03:41:39.005Z,98177.01
2018-04-15T03:44:06.572Z,98183.09
2018-04-15T03:46:34.064Z,98179.41
2018-04-15T03:49:01.581Z,98187.44
2018-04-15T03:51:29.067Z,98183.35
2018-04-15T03:53:56.563Z,98186.15
2018-04-15T03:56:24.458Z,98193.73
2018-04-15T03:58:52.090Z,98195.36
2018-04-15T04:01:19.569Z,98184.63
2018-04-15T04:03:47.077Z,98177.31
2018-04-15T04:06:14.578Z,98167.23
2018-04-15T04:08:42.083Z,98174.20
2018-04-15T04:11:09.590Z,98174.06
2018-04-15T04:13:37.106Z,98177.10
2018-04-15T04:16:04.604Z,98167.68
2018-04-15T04:18:43.810Z,98159.56
2018-04-15T04:21:23.296Z,98156.06
2018-04-15T04:26:51.187Z,98155.99
2018-04-15T04:29:18.689Z,98159.86
2018-04-15T04:31:46.211Z,98167.39
2018-04-15T04:34:13.704Z,98170.37
2018-04-15T04:36:41.204Z,98164.75
2018-04-15T04:39:08.683Z,98160.92
2018-04-15T04:41:36.161Z,98163.02
2018-04-15T04:44:03.654Z,98159.45
2018-04-15T04:46:31.199Z,98151.85
2018-04-15T04:48:58.697Z,98149.70
2018-04-15T04:51:26.242Z,98149.86
2018-04-15T04:53:53.725Z,98156.29
2018-04-15T04:56:21.215Z,98156.43
2018-04-15T04:58:48.694Z,98155.30
2018-04-15T05:01:16.347Z,98153.23
2018-04-15T05:03:43.855Z,98161.19
2018-04-15T05:06:11.355Z,98162.58
2018-04-15T05:08:38.912Z,98163.27
2018-04-15T05:11:06.398Z,98166.97
2018-04-15T05:13:33.885Z,98175.58
2018-04-15T05:16:01.383Z,98172.81
2018-04-15T05:18:28.913Z,98162.48
2018-04-15T05:20:56.411Z,98159.77
2018-04-15T05:23:23.898Z,98165.98
2018-04-15T05:25:51.393Z,98156.66
2018-04-15T05:28:19.063Z,98165.80
2018-04-15T05:30:46.573Z,98167.86
2018-04-15T05:33:14.072Z,98170.20
2018-04-15T05:35:41.917Z,98176.56
2018-04-15T05:38:09.429Z,98182.38
2018-04-15T05:40:36.896Z,98180.78
2018-04-15T05:43:04.416Z,98174.25
2018-04-15T05:45:31.932Z,98168.19
2018-04-15T05:47:59.516Z,98162.84
2018-04-15T05:50:26.997Z,98160.19
2018-04-15T05:52:54.533Z,98161.70
2018-04-15T05:55:21.996Z,98164.83
2018-04-15T05:57:49.538Z,98164.80
2018-04-15T06:00:17.166Z,98163.70
2018-04-15T06:02:46.421Z,98159.66
2018-04-15T06:05:13.951Z,98160.39
2018-04-15T06:07:41.446Z,98159.45
2018-04-15T06:10:08.946Z,98158.13
2018-04-15T06:12:36.418Z,98157.52
2018-04-15T06:15:03.922Z,98151.04
2018-04-15T06:17:31.419Z,98157.66
2018-04-15T06:19:58.915Z,98151.05
2018-04-15T06:22:26.473Z,98141.77
2018-04-15T06:24:53.943Z,98145.00
2018-04-15T06:27:21.438Z,98142.81
2018-04-15T06:29:48.949Z,98144.11
2018-04-15T06:32:16.414Z,98135.88
2018-04-15T06:34:43.946Z,98147.88
2018-04-15T06:37:11.546Z,98145.83
2018-04-15T06:39:39.037Z,98142.73
2018-04-15T06:42:06.541Z,98140.38
2018-04-15T06:44:34.079Z,98134.02
2018-04-15T06:47:01.608Z,98146.38
2018-04-15T06:49:29.109Z,98139.78
2018-04-15T06:51:56.629Z,98137.62
2018-04-15T06:54:27.336Z,98139.91
2018-04-15T06:56:54.989Z,98136.88
2018-04-15T06:59:22.664Z,98131.20
2018-04-15T07:01:51.507Z,98131.91
2018-04-15T07:04:19.885Z,98133.88
2018-04-15T07:06:50.020Z,98135.02
2018-04-15T07:09:17.888Z,98127.97
2018-04-15T07:11:46.342Z,98127.61
2018-04-15T07:14:17.682Z,98128.13
2018-04-15T07:16:47.232Z,98130.86
2018-04-15T07:19:16.618Z,98128.58
2018-04-15T07:21:53.011Z,98131.03
2018-04-15T07:24:21.374Z,98120.64
2018-04-15T07:26:50.502Z,98121.80
2018-04-15T07:29:18.785Z,98124.50
2018-04-15T07:31:50.695Z,98117.52
2018-04-15T07:34:19.472Z,98118.52
2018-04-15T07:36:48.076Z,98116.75
2018-04-15T07:39:18.553Z,98108.66
2018-04-15T07:41:48.878Z,98108.83
2018-04-15T07:44:16.530Z,98105.76
2018-04-15T07:46:45.443Z,98101.31
2018-04-15T07:49:14.206Z,98103.13
2018-04-15T07:51:43.743Z,98094.83
2018-04-15T07:54:14.195Z,98089.21
2018-04-15T07:56:44.476Z,98087.85
2018-04-15T07:59:12.289Z,98084.38
2018-04-15T08:01:43.536Z,98078.70
2018-04-15T08:04:14.461Z,98080.31
2018-04-15T08:06:42.167Z,98083.70
2018-04-15T08:09:11.799Z,98072.50
2018-04-15T08:11:39.397Z,98072.33
2018-04-15T08:14:06.960Z,98074.16
2018-04-15T08:16:34.640Z,98074.75
2018-04-15T08:19:02.951Z,98077.73
2018-04-15T08:21:30.699Z,98079.63
2018-04-15T08:23:58.198Z,98071.80
2018-04-15T08:26:25.772Z,98080.23
2018-04-15T08:28:53.254Z,98075.73
2018-04-15T08:31:20.760Z,98079.86
2018-04-15T08:33:48.242Z,98075.92
2018-04-15T08:36:15.964Z,98074.56
2018-04-15T08:38:43.464Z,98069.01
2018-04-15T08:41:10.956Z,98065.01
2018-04-15T08:43:38.465Z,98057.14
2018-04-15T08:46:05.991Z,98061.50
2018-04-15T08:48:33.614Z,98061.37
2018-04-15T08:51:01.196Z,98060.76
2018-04-15T08:53:28.703Z,98056.87
2018-04-15T08:55:56.178Z,98060.86
2018-04-15T08:58:23.798Z,98057.98
2018-04-15T09:00:51.309Z,98059.50
2018-04-15T09:03:18.867Z,98057.27
2018-04-15T09:05:46.417Z,98048.52
2018-04-15T09:08:14.050Z,98051.48
2018-04-15T09:10:41.564Z,98051.34
2018-04-15T09:13:09.070Z,98056.32
2018-04-15T09:15:36.564Z,98050.97
2018-04-15T09:18:04.270Z,98050.53
2018-04-15T09:20:31.772Z,98046.39
2018-04-15T09:22:59.289Z,98043.94
2018-04-15T09:25:26.817Z,98049.58
2018-04-15T09:27:54.359Z,98047.97
2018-04-15T09:30:21.828Z,98054.08
2018-04-15T09:32:49.317Z,98049.02
2018-04-15T09:35:16.815Z,98042.33
2018-04-15T09:37:44.321Z,98038.93
2018-04-15T09:40:11.828Z,98036.16
2018-04-15T09:42:39.332Z,98031.73
2018-04-15T09:45:06.845Z,98031.72
2018-04-15T09:47:34.351Z,98036.30
2018-04-15T09:50:01.847Z,98039.41
2018-04-15T09:52:29.476Z,98039.39
2018-04-15T09:54:56.984Z,98024.64
2018-04-15T09:57:24.514Z,98020.29
2018-04-15T09:59:52.006Z,98018.81
2018-04-15T10:02:19.506Z,98017.72
2018-04-15T10:04:47.019Z,98017.63
2018-04-15T10:07:14.581Z,98016.86
2018-04-15T10:09:42.076Z,98013.38
2018-04-15T10:12:09.577Z,98001.45
2018-04-15T10:14:37.066Z,98007.09
2018-04-15T10:17:04.553Z,97999.09
2018-04-15T10:19:32.058Z,98011.04
2018-04-15T10:21:59.571Z,98004.40
2018-04-15T10:24:27.055Z,98002.17
2018-04-15T10:26:54.545Z,98004.80
2018-04-15T10:29:22.038Z,98001.28
2018-04-15T10:31:49.551Z,97989.55
2018-04-15T10:34:17.044Z,97980.20
2018-04-15T10:36:44.569Z,97986.16
2018-04-15T10:39:12.062Z,97981.23
2018-04-15T10:41:39.601Z,97979.77
2018-04-15T10:44:07.104Z,97985.39
2018-04-15T10:46:34.611Z,97985.97
2018-04-15T10:49:02.098Z,97989.70
2018-04-15T10:51:29.597Z,97984.08
2018-04-15T10:53:57.094Z,97984.09
2018-04-15T10:56:24.585Z,97984.59
2018-04-15T10:58:52.102Z,97979.84
2018-04-15T11:01:19.599Z,97974.92
2018-04-15T11:03:47.113Z,97969.43
2018-04-15T11:06:14.610Z,97967.18
2018-04-15T11:08:42.142Z,97967.68
2018-04-15T11:11:09.637Z,97968.45
2018-04-15T11:13:37.163Z,97961.19
2018-04-15T11:16:04.725Z,97959.69
2018-04-15T11:18:32.232Z,97967.02
2018-04-15T11:20:59.702Z,97959.47
2018-04-15T11:23:27.231Z,97957.98
2018-04-15T11:25:54.756Z,97954.38
2018-04-15T11:28:22.333Z,97950.15
2018-04-15T11:30:49.838Z,97943.41
2018-04-15T11:33:17.383Z,97943.14
2018-04-15T11:35:44.899Z,97937.64
2018-04-15T11:38:12.819Z,97935.78
2018-04-15T11:40:40.324Z,97922.95
2018-04-15T11:43:07.856Z,97920.91
2018-04-15T11:45:35.349Z,97922.77
2018-04-15T11:48:02.840Z,97919.94
2018-04-15T11:50:30.357Z,97918.80
2018-04-15T11:52:57.847Z,97918.30
2018-04-15T11:55:25.326Z,97911.17
2018-04-15T11:57:52.824Z,97908.80
2018-04-15T12:00:20.335Z,97898.21
2018-04-15T12:02:47.855Z,97887.61
2018-04-15T12:05:15.351Z,97886.45
2018-04-15T12:07:42.822Z,97883.97
2018-04-15T12:10:10.381Z,97882.13
2018-04-15T12:12:37.863Z,97881.03
2018-04-15T12:15:05.354Z,97879.26
2018-04-15T12:17:32.858Z,97874.50
2018-04-15T12:20:00.460Z,97865.75
2018-04-15T12:22:27.980Z,97866.48
2018-04-15T12:24:55.480Z,97869.78
2018-04-15T12:27:22.976Z,97869.73
2018-04-15T12:29:50.461Z,97868.78
2018-04-15T12:32:17.963Z,97869.23
2018-04-15T12:34:45.464Z,97871.15
2018-04-15T12:37:13.099Z,97875.56
2018-04-15T12:39:40.605Z,97872.70
2018-04-15T12:42:08.106Z,97873.91
2018-04-15T12:44:35.630Z,97857.95
2018-04-15T12:47:03.112Z,97839.77
2018-04-15T12:49:30.612Z,97832.78
2018-04-15T12:51:58.113Z,97827.15
2018-04-15T12:54:25.619Z,97819.88
2018-04-15T12:56:53.115Z,97820.97
2018-04-15T12:59:20.620Z,97807.84
2018-04-15T13:01:48.118Z,97807.47
2018-04-15T13:04:15.636Z,97793.88
2018-04-15T13:06:43.154Z,97795.70
2018-04-15T13:09:10.641Z,97784.66
2018-04-15T13:11:38.130Z,97778.54
2018-04-15T13:14:05.667Z,97779.02
2018-04-15T13:16:33.161Z,97776.13
2018-04-15T13:19:00.651Z,97771.15
2018-04-15T13:21:28.138Z,97776.70
2018-04-15T13:23:55.632Z,97766.81
2018-04-15T13:26:23.394Z,97764.31
2018-04-15T13:28:50.906Z,97768.92
2018-04-15T13:31:18.458Z,97766.87
2018-04-15T13:33:46.043Z,97768.11
2018-04-15T13:36:13.776Z,97767.92
2018-04-15T13:38:41.265Z,97760.55
2018-04-15T13:41:08.774Z,97767.23
2018-04-15T13:43:36.376Z,97768.07
2018-04-15T13:46:04.061Z,97765.96
2018-04-15T13:48:31.663Z,97769.67
2018-04-15T13:50:59.152Z,97774.28
2018-04-15T13:53:26.653Z,97770.76
2018-04-15T13:55:54.206Z,97774.87
2018-04-15T13:58:21.700Z,97772.80
2018-04-15T14:00:49.183Z,97763.60
2018-04-15T14:03:16.752Z,97758.91
2018-04-15T14:05:44.255Z,97749.53
2018-04-15T14:08:11.779Z,97758.09
2018-04-15T14:10:39.258Z,97750.88
2018-04-15T14:13:06.977Z,97746.25
2018-04-15T14:15:34.465Z,97745.33
2018-04-15T14:18:02.001Z,97737.70
2018-04-15T14:20:29.492Z,97725.88
2018-04-15T14:22:57.077Z,97728.58
2018-04-15T14:25:24.597Z,97724.90
2018-04-15T14:27:52.085Z,97720.08
2018-04-15T14:30:20.698Z,97718.67
2018-04-15T14:32:48.914Z,97715.47
2018-04-15T14:35:16.883Z,97715.77
2018-04-15T14:37:44.361Z,97718.03
2018-04-15T14:40:11.878Z,97722.31
2018-04-15T14:42:39.380Z,97714.27
2018-04-15T14:45:06.932Z,97711.48
2018-04-15T14:47:34.497Z,97709.09
2018-04-15T14:50:02.081Z,97706.00
2018-04-15T14:52:29.466Z,97709.83
2018-04-15T14:54:56.968Z,97708.59
2018-04-15T14:57:24.476Z,97707.31
2018-04-15T14:59:51.964Z,97699.05
2018-04-15T15:02:19.598Z,97697.38
2018-04-15T15:04:47.088Z,97691.27
2018-04-15T15:07:14.620Z,97693.56
2018-04-15T15:09:42.127Z,97685.66
2018-04-15T15:12:09.641Z,97690.53
2018-04-15T15:14:37.157Z,97681.77
2018-04-15T15:17:04.841Z,97681.72
2018-04-15T15:19:32.514Z,97675.80
2018-04-15T15:21:59.980Z,97675.93
2018-04-15T15:24:27.505Z,97666.72
2018-04-15T15:26:54.986Z,97663.56
2018-04-15T15:29:22.574Z,97660.33
2018-04-15T15:31:50.059Z,97656.16
2018-04-15T15:34:17.675Z,97659.27
2018-04-15T15:36:45.194Z,97663.55
2018-04-15T15:39:12.727Z,97663.28
2018-04-15T15:41:40.237Z,97661.64
2018-04-15T15:44:07.897Z,97660.48
2018-04-15T15:46:35.552Z,97655.44
2018-04-15T15:49:03.035Z,97653.06
2018-04-15T15:51:30.533Z,97659.66
2018-04-15T15:53:58.161Z,97661.95
2018-04-15T15:56:25.658Z,97663.56
2018-04-15T15:58:53.192Z,97660.48
2018-04-15T16:01:20.739Z,97660.53
2018-04-15T16:03:48.245Z,97659.94
2018-04-15T16:06:15.743Z,97657.71
2018-04-15T16:08:43.251Z,97661.77
2018-04-15T16:11:10.755Z,97671.36
2018-04-15T16:13:38.247Z,97669.19
2018-04-15T16:16:05.717Z,97665.77
2018-04-15T16:18:33.271Z,97671.00
2018-04-15T16:21:00.763Z,97668.73
2018-04-15T16:23:28.267Z,97662.33
2018-04-15T16:25:55.751Z,97667.25
2018-04-15T16:28:23.231Z,97673.45
2018-04-15T16:30:50.729Z,97675.19
2018-04-15T16:33:18.240Z,97682.48
2018-04-15T16:35:45.751Z,97674.75
2018-04-15T16:38:13.729Z,97674.35
2018-04-15T16:40:41.301Z,97674.77
2018-04-15T16:43:08.831Z,97682.81
2018-04-15T16:45:36.361Z,97669.80
2018-04-15T16:48:03.895Z,97673.23
2018-04-15T16:50:31.370Z,97666.11
2018-04-15T16:52:58.869Z,97675.42
2018-04-15T16:55:26.528Z,97679.48
2018-04-15T16:57:54.068Z,97682.38
2018-04-15T17:00:21.519Z,97680.80
2018-04-15T17:02:49.020Z,97677.18
2018-04-15T17:05:16.516Z,97684.14
2018-04-15T17:07:44.048Z,97685.27
2018-04-15T17:10:14.728Z,97688.27
2018-04-15T17:12:42.211Z,97694.17
2018-04-15T17:15:09.740Z,97692.35
2018-04-15T17:17:37.250Z,97698.37
2018-04-15T17:20:04.721Z,97697.11
2018-04-15T17:22:32.395Z,97706.23
2018-04-15T17:24:59.862Z,97704.12
2018-04-15T17:27:27.373Z,97709.86
2018-04-15T17:29:55.093Z,97711.24
2018-04-15T17:32:22.583Z,97715.27
2018-04-15T17:34:50.105Z,97716.53
2018-04-15T17:37:17.570Z,97718.69
2018-04-15T17:39:45.108Z,97718.52
2018-04-15T17:42:12.820Z,97720.80
2018-04-15T17:44:40.665Z,97715.59
2018-04-15T17:47:08.203Z,97715.31
2018-04-15T17:49:49.523Z,97719.23
2018-04-15T17:52:18.133Z,97719.02
2018-04-15T17:54:45.667Z,97722.83
2018-04-15T17:57:13.242Z,97730.80
2018-04-15T17:59:40.902Z,97727.88
2018-04-15T18:02:08.410Z,97735.66
2018-04-15T18:04:35.950Z,97736.26
2018-04-15T18:07:03.472Z,97731.53
2018-04-15T18:09:31.005Z,97741.02
2018-04-15T18:11:58.524Z,97744.16
2018-04-15T18:14:26.000Z,97743.83
2018-04-15T18:16:53.499Z,97744.53
2018-04-15T18:19:21.012Z,97748.79
2018-04-15T18:21:48.528Z,97743.22
2018-04-15T18:24:16.057Z,97747.50
2018-04-15T18:26:43.534Z,97744.80
2018-04-15T18:29:11.038Z,97753.48
2018-04-15T18:31:38.543Z,97751.08
2018-04-15T18:34:06.044Z,97755.20
2018-04-15T18:36:33.575Z,97751.31
2018-04-15T18:39:01.090Z,97749.14
2018-04-15T18:41:28.585Z,97748.99
2018-04-15T18:43:56.194Z,97751.12
2018-04-15T18:46:23.662Z,97752.02
2018-04-15T18:48:51.167Z,97754.25
2018-04-15T18:51:18.851Z,97755.28
2018-04-15T18:53:46.330Z,97754.86
2018-04-15T18:56:13.843Z,97756.66
2018-04-15T18:58:41.336Z,97757.94
2018-04-15T19:01:08.877Z,97757.16
2018-04-15T19:03:36.379Z,97757.53
2018-04-15T19:06:03.885Z,97762.72
2018-04-15T19:08:31.384Z,97766.91
2018-04-15T19:10:58.877Z,97764.95
2018-04-15T19:13:26.383Z,97764.23
2018-04-15T19:15:53.869Z,97768.36
2018-04-15T19:18:21.387Z,97769.48
2018-04-15T19:20:48.894Z,97772.47
2018-04-15T19:23:16.442Z,97774.82
2018-04-15T19:25:43.996Z,97776.95
2018-04-15T19:28:11.520Z,97770.80
2018-04-15T19:30:39.025Z,97782.61
2018-04-15T19:33:06.556Z,97775.09
2018-04-15T19:35:34.071Z,97772.08
2018-04-15T19:38:01.568Z,97771.47
2018-04-15T19:40:29.047Z,97778.41
2018-04-15T19:42:56.668Z,97782.14
2018-04-15T19:45:24.391Z,97793.67
2018-04-15T19:47:51.903Z,97796.50
2018-04-15T19:50:19.640Z,97800.75
2018-04-15T19:52:47.153Z,97806.06
2018-04-15T19:55:14.721Z,97790.91
2018-04-15T19:57:42.256Z,97793.38
2018-04-15T20:00:10.009Z,97793.91
2018-04-15T20:02:37.500Z,97801.25
2018-04-15T20:05:05.022Z,97800.27
2018-04-15T20:07:32.515Z,97798.35
2018-04-15T20:10:01.173Z,97795.68
2018-04-15T20:12:28.680Z,97799.25
2018-04-15T20:14:56.185Z,97799.78
2018-04-15T20:17:23.712Z,97799.16
2018-04-15T20:19:51.206Z,97796.93
2018-04-15T20:22:18.777Z,97798.45
2018-04-15T20:24:46.371Z,97797.98
2018-04-15T20:27:14.089Z,97799.75
2018-04-15T20:29:41.674Z,97801.06
2018-04-15T20:32:09.162Z,97801.97
2018-04-15T20:34:36.710Z,97802.34
2018-04-15T20:37:04.301Z,97805.64
2018-04-15T20:39:31.931Z,97805.04
2018-04-15T20:41:59.482Z,97804.95
2018-04-15T20:44:26.975Z,97799.89
2018-04-15T20:46:54.466Z,97800.83
2018-04-15T20:49:21.965Z,97802.06
2018-04-15T20:51:49.476Z,97799.33
2018-04-15T20:54:17.205Z,97801.05
2018-04-15T20:56:44.734Z,97799.38
2018-04-15T20:59:14.995Z,97795.62
2018-04-15T21:01:42.598Z,97800.70
2018-04-15T21:04:11.216Z,97800.02
2018-04-15T21:06:39.167Z,97798.23
2018-04-15T21:09:06.760Z,97797.55
2018-04-15T21:11:34.642Z,97794.94
2018-04-15T21:14:02.138Z,97791.78
2018-04-15T21:16:29.630Z,97793.54
2018-04-15T21:18:57.114Z,97789.45
2018-04-15T21:21:24.615Z,97795.41
2018-04-15T21:23:52.121Z,97785.52
2018-04-15T21:26:19.628Z,97790.55
2018-04-15T21:28:47.315Z,97785.56
2018-04-15T21:31:14.824Z,97780.95
2018-04-15T21:33:42.536Z,97776.98
2018-04-15T21:36:10.036Z,97773.34
2018-04-15T21:38:37.775Z,97778.42
2018-04-15T21:41:05.321Z,97779.44
2018-04-15T21:43:32.883Z,97773.00
2018-04-15T21:46:00.376Z,97767.27
2018-04-15T21:48:27.869Z,97766.09
2018-04-15T21:50:55.400Z,97763.77
2018-04-15T21:53:22.903Z,97770.48
2018-04-15T21:55:50.437Z,97771.94
2018-04-15T21:58:17.925Z,97767.41
2018-04-15T22:00:45.418Z,97771.43
2018-04-15T22:03:12.917Z,97769.08
2018-04-15T22:05:40.408Z,97771.08
2018-04-15T22:08:07.982Z,97772.12
2018-04-15T22:10:35.480Z,97770.83
2018-04-15T22:13:08.692Z,97776.30
2018-04-15T22:15:36.257Z,97779.19
2018-04-15T22:18:03.765Z,97785.90
2018-04-15T22:20:31.243Z,97788.59
2018-04-15T22:22:58.736Z,97797.16
2018-04-15T22:25:26.305Z,97792.68
2018-04-15T22:27:53.834Z,97788.38
2018-04-15T22:30:21.351Z,97793.19
2018-04-15T22:32:48.846Z,97794.56
2018-04-15T22:35:16.334Z,97801.86
2018-04-15T22:37:43.849Z,97790.00
2018-04-15T22:40:11.326Z,97781.30
2018-04-15T22:42:38.867Z,97777.32
2018-04-15T22:45:06.382Z,97777.16
2018-04-15T22:47:33.874Z,97772.38
2018-04-15T22:50:06.929Z,97776.72
2018-04-15T22:52:34.407Z,97782.93
2018-04-15T22:55:01.915Z,97792.81
2018-04-15T22:57:29.466Z,97788.45
2018-04-15T22:59:56.984Z,97785.92
2018-04-15T23:02:24.470Z,97793.16
2018-04-15T23:04:51.968Z,97787.58
2018-04-15T23:07:19.430Z,97784.41
2018-04-15T23:09:46.927Z,97779.27
2018-04-15T23:12:14.438Z,97775.94
2018-04-15T23:14:41.962Z,97772.41
2018-04-15T23:17:09.619Z,97771.52
2018-04-15T23:19:37.114Z,97779.34
2018-04-15T23:22:04.604Z,97775.21
2018-04-15T23:24:32.143Z,97777.22
2018-04-15T23:26:59.646Z,97781.03
2018-04-15T23:29:27.164Z,97795.20
2018-04-15T23:31:54.634Z,97800.91
2018-04-15T23:34:22.135Z,97806.55
2018-04-15T23:36:49.629Z,97800.59
2018-04-15T23:39:17.103Z,97800.13
2018-04-15T23:41:44.605Z,97802.55
2018-04-15T23:44:12.128Z,97805.00
2018-04-15T23:46:39.622Z,97804.45
2018-04-15T23:49:07.123Z,97809.99
2018-04-15T23:51:34.602Z,97809.41
2018-04-15T23:54:02.095Z,97817.71
2018-04-15T23:56:29.608Z,97818.51
2018-04-15T23:58:57.093Z,97813.47
